createdAt,value
2024-03-04T00:02:00.734Z,12.10
2024-03-04T00:04:28.525Z,12.70
2024-03-04T00:06:56.328Z,12.70
2024-03-04T00:09:23.854Z,11.60
2024-03-04T00:11:51.509Z,12.70
2024-03-04T00:14:19.181Z,12.50
2024-03-04T00:16:47.143Z,11.60
2024-03-04T00:19:14.785Z,13.30
2024-03-04T00:21:42.582Z,11.80
2024-03-04T00:24:10.228Z,11.60
2024-03-04T00:26:37.798Z,12.60
2024-03-04T00:29:05.452Z,12.40
2024-03-04T00:31:33.082Z,18.40
2024-03-04T00:34:00.871Z,33.40
2024-03-04T00:36:28.538Z,23.30
2024-03-04T00:38:56.719Z,19.00
2024-03-04T00:41:24.681Z,22.10
2024-03-04T00:43:52.341Z,19.80
2024-03-04T00:46:19.938Z,16.20
2024-03-04T00:48:47.462Z,17.90
2024-03-04T00:51:15.130Z,18.20
2024-03-04T00:53:42.782Z,16.70
2024-03-04T00:56:10.350Z,17.60
2024-03-04T00:58:37.935Z,15.60
2024-03-04T01:01:05.638Z,14.30
2024-03-04T01:03:33.430Z,15.10
2024-03-04T01:06:01.401Z,14.60
2024-03-04T01:08:29.070Z,17.40
2024-03-04T01:10:56.654Z,16.40
2024-03-04T01:13:24.607Z,14.80
2024-03-04T01:15:52.159Z,14.60
2024-03-04T01:18:19.936Z,15.50
2024-03-04T01:20:47.578Z,15.10
2024-03-04T01:23:15.135Z,16.50
2024-03-04T01:25:42.759Z,16.50
2024-03-04T01:28:10.598Z,15.40
2024-03-04T01:30:38.322Z,19.00
2024-03-04T01:33:06.204Z,23.60
2024-03-04T01:35:33.860Z,23.30
2024-03-04T01:38:01.517Z,19.60
2024-03-04T01:40:29.236Z,17.10
2024-03-04T01:42:56.998Z,16.50
2024-03-04T01:45:24.643Z,24.50
2024-03-04T01:47:52.406Z,21.40
2024-03-04T01:50:20.041Z,18.20
2024-03-04T01:52:47.998Z,17.20
2024-03-04T01:55:15.767Z,19.80
2024-03-04T01:57:43.484Z,20.00
2024-03-04T02:00:11.487Z,19.10
2024-03-04T02:02:39.056Z,20.00
2024-03-04T02:05:06.740Z,21.00
2024-03-04T02:07:34.407Z,18.90
2024-03-04T02:10:02.272Z,21.50
2024-03-04T02:12:29.900Z,19.10
2024-03-04T02:14:57.665Z,18.70
2024-03-04T02:17:25.224Z,21.20
2024-03-04T02:19:52.888Z,20.30
2024-03-04T02:22:20.872Z,19.30
2024-03-04T02:24:48.420Z,21.00
2024-03-04T02:27:16.184Z,19.40
2024-03-04T02:29:43.852Z,22.20
2024-03-04T02:32:11.501Z,20.50
2024-03-04T02:34:39.077Z,19.90
2024-03-04T02:37:06.745Z,19.50
2024-03-04T02:39:34.278Z,19.40
2024-03-04T02:42:01.948Z,22.20
2024-03-04T02:44:29.495Z,22.10
2024-03-04T02:46:57.474Z,21.40
2024-03-04T02:49:25.119Z,17.40
2024-03-04T02:51:52.809Z,17.40
2024-03-04T02:54:20.356Z,20.10
2024-03-04T02:56:48.014Z,20.50
2024-03-04T02:59:15.575Z,18.80
2024-03-04T03:01:43.261Z,17.70
2024-03-04T03:04:11.061Z,19.00
2024-03-04T03:06:38.773Z,18.90
2024-03-04T03:09:06.325Z,17.00
2024-03-04T03:11:34.440Z,17.50
2024-03-04T03:14:02.161Z,15.90
2024-03-04T03:16:29.778Z,18.50
2024-03-04T03:18:57.519Z,21.10
2024-03-04T03:21:25.150Z,17.30
2024-03-04T03:23:52.816Z,17.70
2024-03-04T03:26:20.367Z,16.70
2024-03-04T03:28:48.032Z,17.50
2024-03-04T03:31:15.639Z,15.40
2024-03-04T03:33:43.450Z,16.70
2024-03-04T03:36:11.420Z,18.20
2024-03-04T03:38:39.084Z,18.20
2024-03-04T03:41:06.643Z,16.40
2024-03-04T03:43:34.234Z,18.40
2024-03-04T03:46:02.034Z,14.70
2024-03-04T03:48:29.829Z,17.20
2024-03-04T03:50:57.491Z,17.70
2024-03-04T03:53:25.053Z,16.80
2024-03-04T03:55:52.813Z,16.60
2024-03-04T03:58:20.408Z,16.90
2024-03-04T04:00:48.364Z,17.80
2024-03-04T04:03:15.899Z,16.20
2024-03-04T04:05:43.556Z,18.00
2024-03-04T04:08:11.225Z,26.30
2024-03-04T04:10:38.930Z,26.90
2024-03-04T04:13:06.799Z,23.60
2024-03-04T04:15:34.416Z,21.00
2024-03-04T04:18:02.111Z,20.70
2024-03-04T04:20:29.748Z,20.20
2024-03-04T04:22:57.297Z,17.40
2024-03-04T04:25:25.000Z,15.70
2024-03-04T04:27:52.934Z,15.30
2024-03-04T04:30:20.592Z,13.80
2024-03-04T04:32:48.180Z,14.60
2024-03-04T04:35:15.905Z,17.00
2024-03-04T04:37:43.543Z,14.90
2024-03-04T04:40:11.433Z,15.80
2024-03-04T04:42:39.203Z,19.20
2024-03-04T04:45:06.760Z,18.40
2024-03-04T04:47:34.437Z,15.60
2024-03-04T04:50:01.997Z,15.70
2024-03-04T04:52:30.132Z,17.40
2024-03-04T04:54:57.919Z,14.80
2024-03-04T04:57:25.694Z,14.10
2024-03-04T04:59:53.480Z,14.30
2024-03-04T05:02:21.008Z,13.80
2024-03-04T05:04:54.700Z,14.90
2024-03-04T05:07:25.951Z,13.40
2024-03-04T05:09:54.360Z,15.10
2024-03-04T05:12:22.221Z,13.40
2024-03-04T05:14:49.780Z,12.80
2024-03-04T05:17:17.866Z,12.80
2024-03-04T05:19:45.524Z,13.60
2024-03-04T05:22:13.201Z,15.70
2024-03-04T05:24:40.931Z,19.50
2024-03-04T05:27:08.477Z,18.50
2024-03-04T05:29:36.044Z,15.60
2024-03-04T05:32:03.699Z,16.10
2024-03-04T05:34:31.276Z,18.70
2024-03-04T05:36:58.936Z,24.60
2024-03-04T05:39:26.577Z,19.40
2024-03-04T05:41:54.446Z,18.30
2024-03-04T05:44:22.125Z,18.10
2024-03-04T05:46:49.665Z,19.80
2024-03-04T05:49:17.368Z,15.40
2024-03-04T05:51:45.098Z,19.70
2024-03-04T05:54:12.754Z,17.20
2024-03-04T05:56:40.416Z,18.40
2024-03-04T05:59:08.082Z,13.30
2024-03-04T06:01:36.025Z,14.30
2024-03-04T06:04:03.752Z,18.70
2024-03-04T06:06:31.780Z,18.60
2024-03-04T06:08:59.447Z,18.90
2024-03-04T06:11:27.116Z,19.40
2024-03-04T06:13:54.786Z,18.00
2024-03-04T06:16:22.550Z,19.60
2024-03-04T06:18:50.190Z,17.30
2024-03-04T06:21:17.749Z,18.40
2024-03-04T06:23:45.417Z,16.90
2024-03-04T06:26:13.043Z,15.30
2024-03-04T06:28:41.053Z,15.40
2024-03-04T06:31:08.968Z,14.30
2024-03-04T06:33:48.024Z,15.50
2024-03-04T06:36:21.304Z,16.20
2024-03-04T06:38:49.353Z,14.40
2024-03-04T06:41:17.069Z,14.50
2024-03-04T06:43:44.845Z,14.90
2024-03-04T06:46:12.637Z,17.40
2024-03-04T06:48:40.465Z,15.30
2024-03-04T06:51:08.017Z,16.60
2024-03-04T06:53:35.731Z,17.10
2024-03-04T06:56:03.755Z,15.60
2024-03-04T06:58:31.329Z,19.00
2024-03-04T07:00:58.982Z,18.40
2024-03-04T07:03:26.733Z,20.60
2024-03-04T07:05:54.301Z,21.20
2024-03-04T07:08:22.313Z,21.30
2024-03-04T07:10:50.069Z,21.50
2024-03-04T07:13:17.731Z,21.30
2024-03-04T07:15:45.461Z,21.40
2024-03-04T07:18:13.169Z,22.30
2024-03-04T07:20:41.314Z,21.70
2024-03-04T07:23:08.865Z,21.00
2024-03-04T07:25:36.546Z,22.10
2024-03-04T07:28:04.276Z,20.20
2024-03-04T07:30:31.946Z,19.00
2024-03-04T07:32:59.665Z,19.30
2024-03-04T07:35:27.357Z,24.30
2024-03-04T07:37:55.139Z,23.40
2024-03-04T07:40:22.694Z,22.60
2024-03-04T07:42:50.348Z,20.60
2024-03-04T07:45:18.006Z,23.40
2024-03-04T07:47:46.035Z,23.20
2024-03-04T07:50:13.638Z,21.10
2024-03-04T07:52:41.355Z,20.00
2024-03-04T07:55:09.136Z,17.50
2024-03-04T07:57:36.840Z,14.60
2024-03-04T08:00:05.520Z,14.10
2024-03-04T08:02:34.922Z,13.70
2024-03-04T08:05:02.590Z,13.10
2024-03-04T08:07:30.372Z,12.20
2024-03-04T08:09:57.919Z,13.30
2024-03-04T08:12:25.979Z,13.80
2024-03-04T08:14:53.645Z,14.70
2024-03-04T08:17:23.991Z,12.20
2024-03-04T08:19:53.685Z,12.20
2024-03-04T08:22:21.298Z,13.50
2024-03-04T08:24:49.092Z,15.40
2024-03-04T08:27:16.648Z,14.40
2024-03-04T08:29:44.327Z,14.20
2024-03-04T08:32:11.869Z,12.40
2024-03-04T08:34:40.128Z,13.10
2024-03-04T08:37:08.750Z,11.80
2024-03-04T08:39:36.405Z,12.30
2024-03-04T08:42:03.956Z,10.90
2024-03-04T08:44:31.761Z,10.80
2024-03-04T08:46:59.405Z,11.40
2024-03-04T08:49:27.053Z,10.50
2024-03-04T08:51:54.807Z,10.70
2024-03-04T08:54:22.570Z,8.20
2024-03-04T08:56:50.125Z,10.60
2024-03-04T08:59:17.785Z,6.70
2024-03-04T09:01:45.413Z,7.30
2024-03-04T09:04:13.682Z,7.30
2024-03-04T09:06:41.390Z,6.10
2024-03-04T09:09:08.951Z,7.10
2024-03-04T09:11:36.766Z,7.20
2024-03-04T09:16:32.039Z,7.20
2024-03-04T09:21:27.255Z,7.50
2024-03-04T09:23:54.918Z,10.30
2024-03-04T09:26:22.572Z,18.00
2024-03-04T09:31:18.424Z,5.20
2024-03-04T09:33:45.974Z,7.30
2024-03-04T09:36:13.825Z,5.30
2024-03-04T09:38:41.498Z,5.30
2024-03-04T09:43:36.848Z,11.10
2024-03-04T09:46:04.597Z,10.40
2024-03-04T09:48:32.256Z,9.40
2024-03-04T09:50:59.908Z,5.40
2024-03-04T09:53:27.470Z,6.10
2024-03-04T09:55:55.574Z,6.60
2024-03-04T09:58:23.273Z,6.30
2024-03-04T10:00:51.100Z,5.60
2024-03-04T10:03:19.043Z,6.10
2024-03-04T10:05:46.690Z,6.70
2024-03-04T10:08:14.270Z,8.20
2024-03-04T10:10:41.968Z,6.70
2024-03-04T10:13:09.920Z,11.10
2024-03-04T10:15:37.552Z,5.50
2024-03-04T10:18:05.130Z,7.00
2024-03-04T10:20:33.078Z,7.20
2024-03-04T10:23:00.745Z,7.30
2024-03-04T10:25:28.363Z,9.20
2024-03-04T10:27:56.065Z,5.40
2024-03-04T10:30:25.348Z,5.10
2024-03-04T10:32:54.072Z,6.90
2024-03-04T10:35:21.811Z,4.40
2024-03-04T10:37:49.518Z,4.00
2024-03-04T10:40:17.163Z,8.70
2024-03-04T10:42:44.907Z,13.10
2024-03-04T10:45:12.769Z,17.40
2024-03-04T10:47:40.458Z,7.90
2024-03-04T10:50:08.198Z,3.70
2024-03-04T10:52:35.875Z,5.80
2024-03-04T10:55:03.475Z,5.00
2024-03-04T10:57:31.296Z,4.10
2024-03-04T10:59:59.104Z,3.60
2024-03-04T11:02:27.014Z,3.10
2024-03-04T11:04:54.712Z,2.60
2024-03-04T11:07:22.368Z,3.10
2024-03-04T11:09:50.306Z,3.20
2024-03-04T11:12:17.867Z,3.50
2024-03-04T11:14:45.525Z,6.40
2024-03-04T11:17:13.243Z,2.90
2024-03-04T11:19:41.161Z,2.50
2024-03-04T11:22:08.960Z,3.30
2024-03-04T11:24:36.682Z,6.50
2024-03-04T11:27:04.355Z,4.40
2024-03-04T11:29:32.111Z,2.90
2024-03-04T11:31:59.672Z,2.70
2024-03-04T11:34:27.499Z,2.70
2024-03-04T11:36:55.298Z,2.80
2024-03-04T11:39:23.135Z,2.70
2024-03-04T11:41:50.845Z,2.40
2024-03-04T11:44:18.379Z,2.80
2024-03-04T11:46:46.173Z,2.90
2024-03-04T11:49:13.830Z,2.80
2024-03-04T11:51:41.577Z,3.30
2024-03-04T11:54:09.133Z,3.50
2024-03-04T11:56:39.270Z,3.60
2024-03-04T11:59:09.575Z,3.00
2024-03-04T12:01:37.296Z,3.00
2024-03-04T12:04:04.939Z,3.20
2024-03-04T12:06:32.459Z,3.00
2024-03-04T12:09:17.784Z,3.20
2024-03-04T12:11:47.633Z,3.40
2024-03-04T12:14:15.412Z,3.10
2024-03-04T12:16:43.331Z,3.30
2024-03-04T12:19:11.070Z,2.90
2024-03-04T12:21:38.713Z,2.90
2024-03-04T12:24:06.674Z,3.60
2024-03-04T12:26:34.237Z,3.70
2024-03-04T12:29:01.903Z,3.70
2024-03-04T12:31:29.590Z,4.90
2024-03-04T12:33:57.326Z,4.20
2024-03-04T12:36:25.001Z,3.90
2024-03-04T12:38:52.537Z,3.70
2024-03-04T12:41:20.094Z,6.30
2024-03-04T12:43:47.783Z,4.10
2024-03-04T12:46:15.341Z,3.70
2024-03-04T12:48:43.285Z,9.30
2024-03-04T12:51:10.856Z,3.60
2024-03-04T12:53:38.512Z,4.00
2024-03-04T12:56:06.072Z,4.40
2024-03-04T12:58:33.640Z,3.40
2024-03-04T13:01:01.541Z,3.60
2024-03-04T13:03:29.156Z,3.50
2024-03-04T13:05:56.820Z,3.70
2024-03-04T13:08:24.485Z,4.60
2024-03-04T13:10:52.312Z,5.60
2024-03-04T13:13:20.344Z,5.90
2024-03-04T13:15:47.978Z,4.90
2024-03-04T13:18:15.553Z,4.90
2024-03-04T13:20:43.207Z,5.50
2024-03-04T13:23:10.760Z,5.00
2024-03-04T13:25:38.456Z,4.80
2024-03-04T13:28:06.143Z,5.10
2024-03-04T13:30:33.738Z,5.30
2024-03-04T13:33:01.479Z,5.40
2024-03-04T13:35:29.270Z,5.70
2024-03-04T13:37:57.254Z,5.30
2024-03-04T13:40:24.933Z,5.80
2024-03-04T13:42:53.336Z,5.90
2024-03-04T13:45:22.679Z,5.80
2024-03-04T13:47:50.248Z,6.10
2024-03-04T13:50:17.915Z,7.20
2024-03-04T13:52:45.481Z,7.90
2024-03-04T13:55:13.078Z,7.60
2024-03-04T13:57:40.788Z,8.00
2024-03-04T14:00:08.862Z,7.10
2024-03-04T14:02:36.426Z,6.70
2024-03-04T14:05:04.078Z,8.00
2024-03-04T14:07:31.769Z,6.90
2024-03-04T14:09:59.405Z,6.80
2024-03-04T14:14:54.523Z,7.90
2024-03-04T14:17:22.332Z,8.00
2024-03-04T14:19:50.129Z,7.50
2024-03-04T14:22:17.842Z,8.50
2024-03-04T14:24:45.474Z,8.70
2024-03-04T14:27:13.461Z,15.60
2024-03-04T14:34:36.581Z,15.50
2024-03-04T14:37:04.340Z,15.90
2024-03-04T14:39:31.960Z,19.20
2024-03-04T14:41:59.718Z,18.30
2024-03-04T14:44:27.391Z,19.30
2024-03-04T14:46:55.140Z,19.60
2024-03-04T14:49:22.870Z,19.60
2024-03-04T14:51:50.879Z,19.10
2024-03-04T14:54:18.433Z,20.90
2024-03-04T14:56:46.105Z,20.40
2024-03-04T14:59:13.663Z,18.60
2024-03-04T15:01:41.329Z,20.30
2024-03-04T15:04:08.895Z,17.60
2024-03-04T15:06:36.862Z,20.10
2024-03-04T15:09:04.505Z,19.10
2024-03-04T15:11:32.228Z,21.20
2024-03-04T15:14:00.193Z,19.40
2024-03-04T15:16:28.276Z,19.20
2024-03-04T15:18:55.977Z,18.90
2024-03-04T15:21:23.645Z,18.40
2024-03-04T15:23:51.292Z,19.30
2024-03-04T15:26:18.848Z,19.80
2024-03-04T15:28:46.599Z,19.70
2024-03-04T15:31:14.320Z,18.20
2024-03-04T15:33:41.937Z,18.30
2024-03-04T15:36:17.683Z,20.30
2024-03-04T15:38:49.056Z,18.60
2024-03-04T15:41:16.702Z,18.30
2024-03-04T15:43:44.531Z,19.60
2024-03-04T15:46:12.355Z,20.20
2024-03-04T15:48:40.303Z,20.70
2024-03-04T15:51:08.073Z,20.70
2024-03-04T15:53:35.620Z,22.20
2024-03-04T15:56:03.333Z,22.20
2024-03-04T15:58:31.134Z,22.30
2024-03-04T16:00:59.043Z,23.20
2024-03-04T16:03:27.008Z,22.90
2024-03-04T16:05:54.558Z,21.80
2024-03-04T16:08:22.115Z,23.50
2024-03-04T16:10:49.895Z,22.00
2024-03-04T16:13:17.651Z,22.70
2024-03-04T16:15:52.509Z,23.00
2024-03-04T16:18:22.065Z,23.80
2024-03-04T16:20:49.734Z,25.30
2024-03-04T16:23:17.291Z,24.70
2024-03-04T16:25:44.904Z,25.90
2024-03-04T16:28:12.695Z,25.60
2024-03-04T16:30:40.778Z,25.20
2024-03-04T16:33:08.691Z,26.00
2024-03-04T16:35:36.430Z,25.00
2024-03-04T16:38:04.135Z,27.20
2024-03-04T16:40:31.783Z,28.00
2024-03-04T16:42:59.501Z,27.30
2024-03-04T16:45:27.097Z,26.00
2024-03-04T16:47:54.771Z,28.20
2024-03-04T16:50:22.522Z,27.80
2024-03-04T16:52:50.665Z,27.30
2024-03-04T16:55:18.359Z,28.70
2024-03-04T16:57:46.195Z,29.10
2024-03-04T17:00:13.856Z,28.20
2024-03-04T17:02:41.720Z,30.60
2024-03-04T17:05:09.489Z,28.30
2024-03-04T17:07:37.047Z,30.50
2024-03-04T17:10:04.745Z,29.00
2024-03-04T17:12:32.397Z,31.10
2024-03-04T17:14:59.927Z,28.20
2024-03-04T17:17:27.628Z,29.70
2024-03-04T17:19:55.284Z,29.60
2024-03-04T17:22:23.352Z,31.00
2024-03-04T17:24:51.088Z,29.00
2024-03-04T17:27:18.745Z,29.60
2024-03-04T17:29:46.316Z,27.90
2024-03-04T17:32:13.872Z,28.50
2024-03-04T17:34:41.547Z,28.10
2024-03-04T17:37:09.104Z,29.50
2024-03-04T17:39:36.860Z,30.80
2024-03-04T17:42:04.617Z,29.10
2024-03-04T17:44:32.286Z,30.90
2024-03-04T17:47:00.312Z,32.20
2024-03-04T17:49:28.182Z,31.80
2024-03-04T17:51:55.771Z,33.00
2024-03-04T17:54:23.332Z,32.30
2024-03-04T17:56:51.021Z,33.40
2024-03-04T17:59:18.772Z,32.80
2024-03-04T18:01:46.665Z,33.90
2024-03-04T18:04:14.290Z,33.10
2024-03-04T18:06:41.951Z,32.00
2024-03-04T18:09:09.502Z,32.80
2024-03-04T18:11:37.276Z,34.60
2024-03-04T18:14:05.238Z,35.30
2024-03-04T18:16:32.944Z,34.80
2024-03-04T18:19:00.771Z,35.10
2024-03-04T18:21:28.427Z,33.70
2024-03-04T18:23:55.989Z,32.50
2024-03-04T18:26:23.554Z,32.30
2024-03-04T18:28:51.249Z,33.20
2024-03-04T18:31:18.885Z,33.70
2024-03-04T18:33:46.476Z,34.40
2024-03-04T18:36:14.195Z,34.90
2024-03-04T18:38:42.060Z,34.90
2024-03-04T18:41:09.723Z,34.90
2024-03-04T18:43:37.318Z,36.10
2024-03-04T18:46:04.938Z,34.70
2024-03-04T18:48:32.602Z,34.80
2024-03-04T18:51:00.158Z,35.10
2024-03-04T18:53:27.724Z,34.50
2024-03-04T18:55:55.444Z,33.60
2024-03-04T18:58:23.159Z,34.60
2024-03-04T19:00:50.867Z,33.90
2024-03-04T19:03:18.891Z,36.60
2024-03-04T19:05:46.543Z,35.00
2024-03-04T19:08:14.308Z,34.40
2024-03-04T19:10:41.884Z,35.60
2024-03-04T19:13:09.632Z,35.40
2024-03-04T19:15:38.218Z,37.20
2024-03-04T19:20:33.642Z,36.90
2024-03-04T19:23:01.196Z,34.80
2024-03-04T19:25:28.883Z,35.10
2024-03-04T19:27:56.525Z,34.80
2024-03-04T19:30:24.412Z,34.50
2024-03-04T19:32:52.100Z,36.30
2024-03-04T19:35:19.919Z,33.80
2024-03-04T19:37:47.534Z,34.20
2024-03-04T19:40:15.454Z,35.30
2024-03-04T19:42:43.109Z,36.30
2024-03-04T19:45:10.774Z,36.70
2024-03-04T19:47:38.358Z,33.50
2024-03-04T19:50:06.095Z,32.40
2024-03-04T19:52:33.684Z,33.70
2024-03-04T19:55:01.722Z,36.20
2024-03-04T19:57:36.013Z,35.20
2024-03-04T20:00:08.618Z,35.10
2024-03-04T20:02:36.183Z,35.20
2024-03-04T20:05:04.006Z,36.50
2024-03-04T20:07:31.877Z,33.70
2024-03-04T20:09:59.576Z,36.70
2024-03-04T20:12:28.136Z,38.00
2024-03-04T20:14:57.457Z,37.90
2024-03-04T20:17:25.356Z,38.60
2024-03-04T20:19:53.058Z,37.80
2024-03-04T20:22:20.792Z,37.60
2024-03-04T20:24:48.506Z,38.60
2024-03-04T20:27:16.074Z,39.50
2024-03-04T20:29:43.624Z,35.80
2024-03-04T20:32:11.390Z,34.00
2024-03-04T20:34:39.072Z,40.00
2024-03-04T20:37:06.809Z,39.50
2024-03-04T20:39:34.474Z,37.90
2024-03-04T20:42:03.639Z,38.90
2024-03-04T20:44:31.542Z,35.40
2024-03-04T20:46:59.147Z,39.80
2024-03-04T20:49:27.022Z,35.70
2024-03-04T20:51:54.625Z,36.30
2024-03-04T20:54:22.293Z,36.80
2024-03-04T20:56:50.069Z,37.80
2024-03-04T20:59:17.716Z,35.70
2024-03-04T21:01:45.396Z,37.20
2024-03-04T21:04:13.074Z,34.90
2024-03-04T21:06:41.006Z,33.50
2024-03-04T21:09:08.568Z,36.40
2024-03-04T21:11:36.263Z,34.40
2024-03-04T21:14:03.786Z,35.00
2024-03-04T21:16:31.489Z,35.00
2024-03-04T21:18:59.111Z,32.70
2024-03-04T21:21:26.784Z,34.10
2024-03-04T21:23:54.530Z,36.30
2024-03-04T21:26:22.097Z,33.80
2024-03-04T21:28:49.837Z,35.50
2024-03-04T21:31:17.560Z,32.90
2024-03-04T21:33:45.598Z,33.10
2024-03-04T21:36:13.258Z,32.50
2024-03-04T21:38:40.816Z,33.80
2024-03-04T21:41:08.470Z,35.90
2024-03-04T21:43:36.062Z,36.30
2024-03-04T21:46:03.789Z,35.60
2024-03-04T21:48:31.469Z,34.70
2024-03-04T21:50:59.016Z,35.90
2024-03-04T21:53:26.689Z,35.50
2024-03-04T21:55:54.403Z,33.30
2024-03-04T21:58:22.217Z,33.30
2024-03-04T22:00:49.815Z,35.00
2024-03-04T22:03:17.437Z,34.50
2024-03-04T22:05:44.988Z,34.50
2024-03-04T22:08:12.654Z,34.60
2024-03-04T22:10:40.323Z,36.80
2024-03-04T22:13:08.076Z,34.20
2024-03-04T22:15:35.651Z,34.30
2024-03-04T22:18:03.341Z,35.80
2024-03-04T22:20:30.955Z,34.80
2024-03-04T22:22:59.033Z,33.70
2024-03-04T22:25:26.742Z,34.80
2024-03-04T22:27:54.558Z,34.50
2024-03-04T22:30:22.130Z,34.20
2024-03-04T22:32:49.837Z,34.60
2024-03-04T22:35:17.518Z,34.00
2024-03-04T22:37:45.358Z,37.10
2024-03-04T22:40:13.158Z,33.60
2024-03-04T22:42:40.940Z,36.10
2024-03-04T22:45:08.517Z,37.70
2024-03-04T22:47:36.591Z,34.50
2024-03-04T22:50:04.197Z,37.20
2024-03-04T22:52:32.039Z,38.60
2024-03-04T22:54:59.664Z,36.40
2024-03-04T22:57:27.321Z,36.20
2024-03-04T22:59:54.874Z,35.40
2024-03-04T23:02:22.495Z,34.40
2024-03-04T23:04:50.260Z,34.20
2024-03-04T23:07:17.973Z,36.50
2024-03-04T23:09:45.624Z,36.90
2024-03-04T23:12:13.589Z,36.90
2024-03-04T23:14:41.361Z,35.50
2024-03-04T23:17:08.912Z,37.40
2024-03-04T23:19:36.683Z,35.80
2024-03-04T23:22:04.743Z,35.00
2024-03-04T23:24:32.414Z,34.90
2024-03-04T23:27:00.281Z,36.10
2024-03-04T23:29:28.053Z,33.70
2024-03-04T23:31:56.176Z,33.80
2024-03-04T23:34:23.921Z,39.50
2024-03-04T23:36:51.847Z,38.90
2024-03-04T23:39:19.503Z,37.10
2024-03-04T23:41:47.069Z,36.40
2024-03-04T23:44:14.723Z,37.00
2024-03-04T23:46:42.351Z,36.10
2024-03-04T23:49:10.081Z,35.00
2024-03-04T23:51:38.334Z,35.50
2024-03-04T23:54:06.093Z,34.60
2024-03-04T23:56:33.748Z,37.00
2024-03-04T23:59:01.397Z,34.20
